createdAt,value
2023-01-27T00:02:01.969Z,0.01
2023-01-27T00:04:32.277Z,0.01
2023-01-27T00:07:02.510Z,0.06
2023-01-27T00:09:32.663Z,0.09
2023-01-27T00:12:21.295Z,0.09
2023-01-27T00:14:51.449Z,0.13
2023-01-27T00:17:21.683Z,0.14
2023-01-27T00:19:51.759Z,0.12
2023-01-27T00:22:40.423Z,0.12
2023-01-27T00:25:10.705Z,0.10
2023-01-27T00:27:40.837Z,0.12
2023-01-27T00:30:12.602Z,0.15
2023-01-27T00:33:01.700Z,0.09
2023-01-27T00:35:32.371Z,0.14
2023-01-27T00:38:02.459Z,0.09
2023-01-27T00:40:32.574Z,0.17
2023-01-27T00:43:02.713Z,0.17
2023-01-27T00:45:51.402Z,0.17
2023-01-27T00:48:21.482Z,0.18
2023-01-27T00:50:51.600Z,0.14
2023-01-27T00:53:21.706Z,0.18
2023-01-27T00:55:52.130Z,0.14
2023-01-27T00:58:22.749Z,0.16
2023-01-27T01:00:54.373Z,0.14
2023-01-27T01:03:24.558Z,0.08
2023-01-27T01:05:54.721Z,0.19
2023-01-27T01:08:25.520Z,0.13
2023-01-27T01:10:55.729Z,0.20
2023-01-27T01:13:27.895Z,0.18
2023-01-27T01:15:58.397Z,0.19
2023-01-27T01:18:28.607Z,0.21
2023-01-27T01:20:58.795Z,0.19
2023-01-27T01:23:28.986Z,0.18
2023-01-27T01:25:59.501Z,0.24
2023-01-27T01:28:29.800Z,0.22
2023-01-27T01:31:10.789Z,0.21
2023-01-27T01:33:40.976Z,0.15
2023-01-27T01:36:17.817Z,0.20
2023-01-27T01:38:48.517Z,0.22
2023-01-27T01:41:20.993Z,0.26
2023-01-27T01:43:52.126Z,0.27
2023-01-27T01:46:22.646Z,0.26
2023-01-27T01:49:00.121Z,0.25
2023-01-27T01:51:35.363Z,0.28
2023-01-27T01:54:14.146Z,0.29
2023-01-27T01:56:50.094Z,0.24
2023-01-27T01:59:28.794Z,0.23
2023-01-27T02:02:05.937Z,0.18
2023-01-27T02:04:47.464Z,0.33
2023-01-27T02:07:26.637Z,0.27
2023-01-27T02:09:58.667Z,0.26
2023-01-27T02:12:28.833Z,0.24
2023-01-27T02:14:59.236Z,0.25
2023-01-27T02:17:29.664Z,0.22
2023-01-27T02:20:11.886Z,0.26
2023-01-27T02:23:12.136Z,0.25
2023-01-27T02:25:47.856Z,0.24
2023-01-27T02:28:18.188Z,0.20
2023-01-27T02:30:48.559Z,0.22
2023-01-27T02:33:18.800Z,0.16
2023-01-27T02:36:06.476Z,0.24
2023-01-27T02:38:41.223Z,0.20
2023-01-27T02:41:29.685Z,0.19
2023-01-27T02:44:00.443Z,0.21
2023-01-27T02:46:31.160Z,0.20
2023-01-27T02:49:01.539Z,0.19
2023-01-27T02:51:32.022Z,0.22
2023-01-27T02:54:02.720Z,0.21
2023-01-27T02:56:33.113Z,0.22
2023-01-27T02:59:03.331Z,0.27
2023-01-27T03:01:33.752Z,0.22
2023-01-27T03:04:04.015Z,0.25
2023-01-27T03:06:34.189Z,0.25
2023-01-27T03:09:06.216Z,0.32
2023-01-27T03:11:55.097Z,0.25
2023-01-27T03:14:43.695Z,0.33
2023-01-27T03:17:32.318Z,0.33
2023-01-27T03:20:02.498Z,0.34
2023-01-27T03:22:32.629Z,0.30
2023-01-27T03:25:02.847Z,0.24
2023-01-27T03:27:32.998Z,0.24
2023-01-27T03:30:04.102Z,0.21
2023-01-27T03:32:34.483Z,0.18
2023-01-27T03:35:05.508Z,0.21
2023-01-27T03:37:54.123Z,0.11
2023-01-27T03:40:42.966Z,0.18
2023-01-27T03:43:31.682Z,0.15
2023-01-27T03:46:20.016Z,0.14
2023-01-27T03:48:52.567Z,0.11
2023-01-27T03:51:24.863Z,0.19
2023-01-27T03:53:55.118Z,0.21
2023-01-27T03:56:25.340Z,0.22
2023-01-27T03:58:55.486Z,0.25
2023-01-27T04:01:25.606Z,0.29
2023-01-27T04:04:14.197Z,0.26
2023-01-27T04:07:01.147Z,0.31
2023-01-27T04:09:34.179Z,0.34
2023-01-27T04:12:06.100Z,0.30
2023-01-27T04:14:46.477Z,0.27
2023-01-27T04:17:18.693Z,0.23
2023-01-27T04:19:49.225Z,0.21
2023-01-27T04:22:19.411Z,0.19
2023-01-27T04:24:50.396Z,0.14
2023-01-27T04:27:20.568Z,0.13
2023-01-27T04:29:50.811Z,0.12
2023-01-27T04:32:21.046Z,0.10
2023-01-27T04:34:51.219Z,0.12
2023-01-27T04:37:21.416Z,0.08
2023-01-27T04:39:51.528Z,0.13
2023-01-27T04:42:21.865Z,0.12
2023-01-27T04:44:52.049Z,0.11
2023-01-27T04:47:22.877Z,0.06
2023-01-27T04:49:53.028Z,0.13
2023-01-27T04:52:23.211Z,0.16
2023-01-27T04:54:53.350Z,0.15
2023-01-27T04:57:23.525Z,0.14
2023-01-27T04:59:53.587Z,0.16
2023-01-27T05:02:23.787Z,0.15
2023-01-27T05:04:54.045Z,0.14
2023-01-27T05:07:24.627Z,0.11
2023-01-27T05:09:54.839Z,0.15
2023-01-27T05:12:25.408Z,0.14
2023-01-27T05:14:55.644Z,0.16
2023-01-27T05:17:28.038Z,0.17
2023-01-27T05:19:58.173Z,0.16
2023-01-27T05:22:28.318Z,0.13
2023-01-27T05:24:58.542Z,0.23
2023-01-27T05:27:28.940Z,0.19
2023-01-27T05:29:59.096Z,0.20
2023-01-27T05:32:29.143Z,0.20
2023-01-27T05:34:59.353Z,0.20
2023-01-27T05:37:29.922Z,0.20
2023-01-27T05:40:00.111Z,0.19
2023-01-27T05:42:30.253Z,0.17
2023-01-27T05:45:00.469Z,0.13
2023-01-27T05:47:30.573Z,0.15
2023-01-27T05:50:00.716Z,0.03
2023-01-27T05:52:30.970Z,0.15
2023-01-27T05:55:01.089Z,0.16
2023-01-27T05:57:31.156Z,0.18
2023-01-27T06:00:01.301Z,0.17
2023-01-27T06:02:31.387Z,0.15
2023-01-27T06:05:01.670Z,0.18
2023-01-27T06:07:31.783Z,0.17
2023-01-27T06:10:01.886Z,0.18
2023-01-27T06:12:32.026Z,0.14
2023-01-27T06:15:02.973Z,0.19
2023-01-27T06:17:33.137Z,0.18
2023-01-27T06:20:03.312Z,0.16
2023-01-27T06:22:33.389Z,0.15
2023-01-27T06:25:03.570Z,0.14
2023-01-27T06:27:33.728Z,0.15
2023-01-27T06:30:04.181Z,0.12
2023-01-27T06:32:36.968Z,0.10
2023-01-27T06:35:07.648Z,0.13
2023-01-27T06:37:38.006Z,0.05
2023-01-27T06:40:08.718Z,0.06
2023-01-27T06:42:42.616Z,0.06
2023-01-27T06:45:13.692Z,0.15
2023-01-27T06:47:43.914Z,0.14
2023-01-27T06:50:14.379Z,0.08
2023-01-27T06:52:45.059Z,0.15
2023-01-27T06:55:15.352Z,0.16
2023-01-27T06:57:49.340Z,0.13
2023-01-27T07:00:20.031Z,0.16
2023-01-27T07:02:50.909Z,0.13
2023-01-27T07:05:21.133Z,0.16
2023-01-27T07:07:51.391Z,0.15
2023-01-27T07:10:21.560Z,0.18
2023-01-27T07:12:51.785Z,0.21
2023-01-27T07:15:21.914Z,0.24
2023-01-27T07:17:52.048Z,0.27
2023-01-27T07:20:22.289Z,0.26
2023-01-27T07:22:52.464Z,0.26
2023-01-27T07:25:22.702Z,0.31
2023-01-27T07:27:53.704Z,0.33
2023-01-27T07:30:23.932Z,0.36
2023-01-27T07:32:55.615Z,0.42
2023-01-27T07:35:25.859Z,0.48
2023-01-27T07:37:57.615Z,0.48
2023-01-27T07:40:27.755Z,0.53
2023-01-27T07:43:01.825Z,0.57
2023-01-27T07:45:31.981Z,0.60
2023-01-27T07:48:04.875Z,0.54
2023-01-27T07:50:36.507Z,0.54
2023-01-27T07:53:06.731Z,0.61
2023-01-27T07:55:36.909Z,0.66
2023-01-27T07:58:07.654Z,0.54
2023-01-27T08:00:38.162Z,0.67
2023-01-27T08:03:19.686Z,0.62
2023-01-27T08:05:50.499Z,0.61
2023-01-27T08:08:20.613Z,0.63
2023-01-27T08:10:51.646Z,0.65
2023-01-27T08:13:21.776Z,0.71
2023-01-27T08:16:02.586Z,0.68
2023-01-27T08:18:36.407Z,0.75
2023-01-27T08:21:10.071Z,0.77
2023-01-27T08:23:40.366Z,0.77
2023-01-27T08:26:10.652Z,0.80
2023-01-27T08:28:41.270Z,0.77
2023-01-27T08:31:14.412Z,0.76
2023-01-27T08:33:49.823Z,0.83
2023-01-27T08:36:22.045Z,0.83
2023-01-27T08:38:52.286Z,0.78
2023-01-27T08:41:25.948Z,0.84
2023-01-27T08:43:56.154Z,0.84
2023-01-27T08:46:27.111Z,0.95
2023-01-27T08:48:58.000Z,0.90
2023-01-27T08:51:28.927Z,0.88
2023-01-27T08:53:59.197Z,0.85
2023-01-27T08:56:30.959Z,0.85
2023-01-27T08:59:01.302Z,0.93
2023-01-27T09:01:31.606Z,1.06
2023-01-27T09:04:01.820Z,1.10
2023-01-27T09:06:32.013Z,1.18
2023-01-27T09:09:12.278Z,1.22
2023-01-27T09:11:45.411Z,1.28
2023-01-27T09:14:15.520Z,1.28
2023-01-27T09:16:45.755Z,1.28
2023-01-27T09:19:16.538Z,1.31
2023-01-27T09:21:46.655Z,1.30
2023-01-27T09:24:18.066Z,1.39
2023-01-27T09:26:48.738Z,1.27
2023-01-27T09:29:18.936Z,1.36
2023-01-27T09:31:49.298Z,1.44
2023-01-27T09:34:19.819Z,1.41
2023-01-27T09:36:55.136Z,1.39
2023-01-27T09:39:26.835Z,1.45
2023-01-27T09:42:18.400Z,1.54
2023-01-27T09:45:19.393Z,1.57
2023-01-27T09:48:04.750Z,1.65
2023-01-27T09:50:48.585Z,1.72
2023-01-27T09:53:45.983Z,1.76
2023-01-27T09:56:27.022Z,1.76
2023-01-27T09:59:26.877Z,1.78
2023-01-27T10:02:08.442Z,1.66
2023-01-27T10:04:44.643Z,1.64
2023-01-27T10:07:26.957Z,1.62
2023-01-27T10:10:03.649Z,1.47
2023-01-27T10:12:54.847Z,1.53
2023-01-27T10:15:40.136Z,1.49
2023-01-27T10:18:36.812Z,1.51
2023-01-27T10:21:11.835Z,1.66
2023-01-27T10:24:06.519Z,1.68
2023-01-27T10:26:55.953Z,1.69
2023-01-27T10:29:43.567Z,1.63
2023-01-27T10:32:39.079Z,1.71
2023-01-27T10:35:18.462Z,1.75
2023-01-27T10:38:06.224Z,1.82
2023-01-27T10:40:50.473Z,1.90
2023-01-27T10:43:43.396Z,1.93
2023-01-27T10:47:07.745Z,1.92
2023-01-27T10:49:45.678Z,1.90
2023-01-27T10:52:21.898Z,1.93
2023-01-27T10:54:56.347Z,1.97
2023-01-27T10:57:35.643Z,2.30
2023-01-27T11:00:57.881Z,2.46
2023-01-27T11:03:41.430Z,2.38
2023-01-27T11:06:20.457Z,2.25
2023-01-27T11:09:05.481Z,2.09
2023-01-27T11:11:47.034Z,1.89
2023-01-27T11:14:27.984Z,1.89
2023-01-27T11:17:20.376Z,1.98
2023-01-27T11:20:28.651Z,2.06
2023-01-27T11:23:29.606Z,2.04
2023-01-27T11:26:23.634Z,1.94
2023-01-27T11:29:09.058Z,1.82
2023-01-27T11:31:58.237Z,1.82
2023-01-27T11:34:57.729Z,1.77
2023-01-27T11:37:35.838Z,1.64
2023-01-27T11:40:23.778Z,1.89
2023-01-27T11:42:57.157Z,2.35
2023-01-27T11:45:30.728Z,3.44
2023-01-27T11:48:02.729Z,4.97
2023-01-27T11:50:36.694Z,6.41
2023-01-27T11:53:25.645Z,7.63
2023-01-27T11:56:04.143Z,8.86
2023-01-27T11:58:45.512Z,9.34
2023-01-27T12:01:24.207Z,9.12
2023-01-27T12:04:04.693Z,9.05
2023-01-27T12:06:38.997Z,8.29
2023-01-27T12:09:31.408Z,7.49
2023-01-27T12:12:22.855Z,7.20
2023-01-27T12:14:55.379Z,7.25
2023-01-27T12:17:45.133Z,6.81
2023-01-27T12:20:45.289Z,7.13
2023-01-27T12:23:27.270Z,7.60
2023-01-27T12:26:03.515Z,8.07
2023-01-27T12:28:38.171Z,8.89
2023-01-27T12:31:16.501Z,9.45
2023-01-27T12:33:57.020Z,9.84
2023-01-27T12:36:30.180Z,9.88
2023-01-27T12:39:01.848Z,9.65
2023-01-27T12:41:33.447Z,9.83
2023-01-27T12:44:16.790Z,10.20
2023-01-27T12:47:21.818Z,11.19
2023-01-27T12:49:52.088Z,11.64
2023-01-27T12:52:22.396Z,11.45
2023-01-27T12:54:54.306Z,10.94
2023-01-27T12:57:24.751Z,10.77
2023-01-27T12:59:57.450Z,10.37
2023-01-27T13:02:32.712Z,9.51
2023-01-27T13:05:08.347Z,8.55
2023-01-27T13:07:45.085Z,7.63
2023-01-27T13:10:22.571Z,6.99
2023-01-27T13:12:55.702Z,6.35
2023-01-27T13:15:28.742Z,5.80
2023-01-27T13:18:01.434Z,5.46
2023-01-27T13:20:46.045Z,5.16
2023-01-27T13:23:21.013Z,4.81
2023-01-27T13:26:13.364Z,4.54
2023-01-27T13:28:53.215Z,4.28
2023-01-27T13:31:43.460Z,4.08
2023-01-27T13:34:45.678Z,3.91
2023-01-27T13:37:28.525Z,3.62
2023-01-27T13:40:03.503Z,3.39
2023-01-27T13:42:52.108Z,3.32
2023-01-27T13:45:29.493Z,3.22
2023-01-27T13:48:04.552Z,3.11
2023-01-27T13:51:08.910Z,2.90
2023-01-27T13:53:39.957Z,2.84
2023-01-27T13:56:16.340Z,2.67
2023-01-27T13:59:20.153Z,2.40
2023-01-27T14:02:02.928Z,2.22
2023-01-27T14:04:39.151Z,2.22
2023-01-27T14:07:25.790Z,2.22
2023-01-27T14:10:14.387Z,2.17
2023-01-27T14:13:12.103Z,2.03
2023-01-27T14:16:17.694Z,1.88
2023-01-27T14:18:55.763Z,1.72
2023-01-27T14:21:44.196Z,1.72
2023-01-27T14:24:49.955Z,1.59
2023-01-27T14:27:29.502Z,1.60
2023-01-27T14:30:05.392Z,1.58
2023-01-27T14:33:12.862Z,1.55
2023-01-27T14:35:47.222Z,1.45
2023-01-27T14:38:54.210Z,1.21
2023-01-27T14:41:46.067Z,1.23
2023-01-27T14:44:38.395Z,1.00
2023-01-27T14:47:31.882Z,0.98
2023-01-27T14:50:14.254Z,0.96
2023-01-27T14:52:52.830Z,0.91
2023-01-27T14:55:36.220Z,0.79
2023-01-27T14:58:12.385Z,0.69
2023-01-27T15:01:19.549Z,0.68
2023-01-27T15:04:17.328Z,0.61
2023-01-27T15:06:56.933Z,0.46
2023-01-27T15:10:03.709Z,0.43
2023-01-27T15:13:15.947Z,0.44
2023-01-27T15:16:00.413Z,0.48
2023-01-27T15:18:53.644Z,0.50
2023-01-27T15:21:48.695Z,0.43
2023-01-27T15:24:46.389Z,0.33
2023-01-27T15:27:16.834Z,0.28
2023-01-27T15:29:47.159Z,0.20
2023-01-27T15:32:21.095Z,0.23
2023-01-27T15:34:54.064Z,0.21
2023-01-27T15:37:30.679Z,0.29
2023-01-27T15:40:16.796Z,0.34
2023-01-27T15:43:01.046Z,0.41
2023-01-27T15:45:32.395Z,0.36
2023-01-27T15:48:06.814Z,0.38
2023-01-27T15:50:39.683Z,0.39
2023-01-27T15:53:17.996Z,0.32
2023-01-27T15:55:54.733Z,0.32
2023-01-27T15:58:53.888Z,0.37
2023-01-27T16:01:27.731Z,0.37
2023-01-27T16:04:10.345Z,0.41
2023-01-27T16:06:54.215Z,0.35
2023-01-27T16:09:27.027Z,0.40
2023-01-27T16:12:03.924Z,0.34
2023-01-27T16:14:40.886Z,0.36
2023-01-27T16:17:18.170Z,0.29
2023-01-27T16:19:53.659Z,0.27
2023-01-27T16:22:26.480Z,0.24
2023-01-27T16:25:04.354Z,0.23
2023-01-27T16:27:44.395Z,0.22
2023-01-27T16:30:19.485Z,0.28
2023-01-27T16:33:04.503Z,0.24
2023-01-27T16:35:48.360Z,0.25
2023-01-27T16:38:31.578Z,0.18
2023-01-27T16:41:09.391Z,0.03
2023-01-27T16:43:45.470Z,0.06
2023-01-27T16:46:40.058Z,0.07
2023-01-27T16:49:33.446Z,0.01
2023-01-27T16:52:05.508Z,-0.04
2023-01-27T16:54:40.317Z,-0.13
2023-01-27T16:57:42.350Z,-0.23
2023-01-27T17:00:25.676Z,-0.21
2023-01-27T17:02:59.668Z,-0.13
2023-01-27T17:05:30.437Z,-0.20
2023-01-27T17:08:04.889Z,-0.19
2023-01-27T17:10:35.647Z,-0.21
2023-01-27T17:13:06.055Z,-0.17
2023-01-27T17:15:38.775Z,-0.19
2023-01-27T17:18:11.164Z,-0.13
2023-01-27T17:20:46.068Z,-0.14
2023-01-27T17:23:33.304Z,-0.10
2023-01-27T17:26:15.525Z,-0.04
2023-01-27T17:28:47.700Z,-0.11
2023-01-27T17:31:21.595Z,-0.13
2023-01-27T17:34:01.234Z,-0.15
2023-01-27T17:36:31.602Z,-0.17
2023-01-27T17:39:01.754Z,-0.15
2023-01-27T17:41:38.066Z,-0.15
2023-01-27T17:44:13.547Z,-0.16
2023-01-27T17:46:43.782Z,-0.10
2023-01-27T17:49:18.501Z,-0.09
2023-01-27T17:51:58.204Z,-0.05
2023-01-27T17:54:34.229Z,-0.06
2023-01-27T17:57:25.317Z,-0.07
2023-01-27T18:00:07.045Z,-0.03
2023-01-27T18:03:02.778Z,-0.01
2023-01-27T18:05:34.128Z,-0.03
2023-01-27T18:08:05.362Z,-0.03
2023-01-27T18:10:35.459Z,-0.05
2023-01-27T18:13:27.635Z,-0.09
2023-01-27T18:16:14.936Z,-0.04
2023-01-27T18:18:46.379Z,-0.02
2023-01-27T18:21:27.990Z,-0.05
2023-01-27T18:24:00.718Z,-0.34
2023-01-27T18:26:40.509Z,-0.05
2023-01-27T18:29:22.967Z,-0.05
2023-01-27T18:31:59.635Z,-0.05
2023-01-27T18:34:32.736Z,-0.10
2023-01-27T18:37:08.787Z,-0.13
2023-01-27T18:39:40.995Z,-0.08
2023-01-27T18:42:15.228Z,-0.04
2023-01-27T18:44:45.734Z,-0.09
2023-01-27T18:47:18.886Z,-0.09
2023-01-27T18:50:18.349Z,-0.17
2023-01-27T18:52:50.208Z,-0.06
2023-01-27T18:55:29.142Z,-0.05
2023-01-27T18:58:00.697Z,-0.07
2023-01-27T19:00:50.684Z,-0.10
2023-01-27T19:03:30.767Z,-0.13
2023-01-27T19:06:01.651Z,-0.18
2023-01-27T19:08:31.928Z,-0.13
2023-01-27T19:11:02.273Z,-0.11
2023-01-27T19:13:32.679Z,-0.09
2023-01-27T19:16:02.981Z,-0.06
2023-01-27T19:18:35.082Z,-0.03
2023-01-27T19:21:05.970Z,-0.03
2023-01-27T19:23:36.196Z,-0.07
2023-01-27T19:26:14.717Z,-0.02
2023-01-27T19:28:52.056Z,-0.03
2023-01-27T19:31:22.558Z,-0.02
2023-01-27T19:33:55.552Z,-0.05
2023-01-27T19:36:29.105Z,-0.06
2023-01-27T19:39:09.527Z,-0.08
2023-01-27T19:41:39.843Z,-0.04
2023-01-27T19:44:10.807Z,-0.17
2023-01-27T19:46:42.203Z,-0.06
2023-01-27T19:49:17.407Z,-0.04
2023-01-27T19:51:47.714Z,-0.04
2023-01-27T19:54:19.480Z,-0.06
2023-01-27T19:56:50.914Z,-0.05
2023-01-27T19:59:21.009Z,-0.03
2023-01-27T20:01:51.165Z,-0.03
2023-01-27T20:04:21.311Z,-0.12
2023-01-27T20:06:51.488Z,-0.10
2023-01-27T20:09:21.600Z,-0.05
2023-01-27T20:11:51.752Z,-0.05
2023-01-27T20:14:26.247Z,-0.06
2023-01-27T20:16:56.383Z,-0.06
2023-01-27T20:19:26.541Z,-0.03
2023-01-27T20:21:59.132Z,-0.03
2023-01-27T20:24:29.529Z,-0.13
2023-01-27T20:26:59.694Z,-0.06
2023-01-27T20:29:30.264Z,-0.02
2023-01-27T20:32:00.621Z,-0.15
2023-01-27T20:34:30.930Z,-0.03
2023-01-27T20:37:00.995Z,-0.06
2023-01-27T20:39:31.747Z,-0.05
2023-01-27T20:42:02.001Z,-0.04
2023-01-27T20:44:32.120Z,-0.04
2023-01-27T20:47:02.201Z,-0.06
2023-01-27T20:49:34.360Z,-0.01
2023-01-27T20:52:04.525Z,-0.05
2023-01-27T20:54:34.583Z,-0.04
2023-01-27T20:57:04.951Z,-0.06
2023-01-27T20:59:35.058Z,-0.10
2023-01-27T21:02:05.362Z,-0.05
2023-01-27T21:04:35.483Z,-0.15
2023-01-27T21:07:05.978Z,-0.04
2023-01-27T21:09:36.187Z,-0.13
2023-01-27T21:12:06.618Z,-0.08
2023-01-27T21:14:39.951Z,-0.11
2023-01-27T21:17:11.889Z,-0.12
2023-01-27T21:19:42.075Z,-0.15
2023-01-27T21:22:12.170Z,-0.17
2023-01-27T21:24:45.086Z,-0.17
2023-01-27T21:27:15.272Z,-0.08
2023-01-27T21:29:48.226Z,-0.18
2023-01-27T21:32:18.438Z,-0.08
2023-01-27T21:34:48.612Z,-0.07
2023-01-27T21:37:18.741Z,-0.08
2023-01-27T21:39:48.836Z,-0.06
2023-01-27T21:42:18.957Z,-0.01
2023-01-27T21:45:07.654Z,-0.03
2023-01-27T21:47:37.758Z,0.00
2023-01-27T21:50:11.064Z,0.01
2023-01-27T21:52:46.793Z,0.03
2023-01-27T21:55:22.653Z,0.06
2023-01-27T21:57:53.871Z,-0.02
2023-01-27T22:00:26.921Z,-0.02
2023-01-27T22:03:01.869Z,-0.13
2023-01-27T22:05:33.747Z,-0.10
2023-01-27T22:08:06.509Z,-0.09
2023-01-27T22:10:37.555Z,-0.19
2023-01-27T22:13:09.860Z,-0.08
2023-01-27T22:15:40.046Z,-0.09
2023-01-27T22:18:10.122Z,-0.07
2023-01-27T22:20:40.211Z,-0.08
2023-01-27T22:23:10.272Z,-0.09
2023-01-27T22:25:40.315Z,-0.04
2023-01-27T22:28:10.471Z,-0.04
2023-01-27T22:30:40.599Z,-0.03
2023-01-27T22:33:12.007Z,0.01
2023-01-27T22:35:42.268Z,0.01
2023-01-27T22:38:12.396Z,0.01
2023-01-27T22:40:42.496Z,-0.04
2023-01-27T22:43:12.706Z,-0.00
2023-01-27T22:45:43.877Z,0.03
2023-01-27T22:48:14.596Z,0.05
2023-01-27T22:50:44.822Z,0.03
2023-01-27T22:53:15.034Z,-0.03
2023-01-27T22:55:45.219Z,0.02
2023-01-27T22:58:15.270Z,-0.03
2023-01-27T23:00:45.387Z,-0.02
2023-01-27T23:03:15.570Z,-0.04
2023-01-27T23:05:46.264Z,-0.03
2023-01-27T23:08:20.681Z,0.02
2023-01-27T23:10:51.248Z,-0.02
2023-01-27T23:13:21.419Z,-0.05
2023-01-27T23:15:51.746Z,-0.09
2023-01-27T23:18:23.714Z,-0.09
2023-01-27T23:20:53.952Z,-0.11
2023-01-27T23:23:24.145Z,-0.16
2023-01-27T23:25:54.459Z,-0.27
2023-01-27T23:28:24.961Z,-0.23
2023-01-27T23:30:55.186Z,-0.17
2023-01-27T23:33:27.516Z,-0.19
2023-01-27T23:35:57.979Z,-0.23
2023-01-27T23:38:33.571Z,-0.21
2023-01-27T23:41:06.708Z,-0.24
2023-01-27T23:43:36.788Z,-0.25
2023-01-27T23:46:07.049Z,-0.25
2023-01-27T23:48:37.263Z,-0.22
2023-01-27T23:51:09.704Z,-0.22
2023-01-27T23:53:41.527Z,-0.26
2023-01-27T23:56:17.601Z,-0.25
2023-01-27T23:58:48.359Z,-0.27
